sensor_id;sensor_type;location;lat;lon;timestamp;temperature;humidity
22742;DHT22;11538;48.884;8.696;2022-09-21T00:01:07;9.80;99.90
22742;DHT22;11538;48.884;8.696;2022-09-21T00:03:39;9.70;99.90
22742;DHT22;11538;48.884;8.696;2022-09-21T00:06:08;9.70;99.90
22742;DHT22;11538;48.884;8.696;2022-09-21T00:08:45;9.70;99.90
22742;DHT22;11538;48.884;8.696;2022-09-21T00:11:20;9.70;99.90
22742;DHT22;11538;48.884;8.696;2022-09-21T00:13:54;9.60;99.90
22742;DHT22;11538;48.884;8.696;2022-09-21T00:16:25;9.60;99.90
22742;DHT22;11538;48.884;8.696;2022-09-21T00:18:53;9.60;99.90
22742;DHT22;11538;48.884;8.696;2022-09-21T00:21:20;9.60;99.90
22742;DHT22;11538;48.884;8.696;2022-09-21T00:23:47;9.60;99.90
22742;DHT22;11538;48.884;8.696;2022-09-21T00:26:15;9.50;99.90
22742;DHT22;11538;48.884;8.696;2022-09-21T00:28:45;9.50;99.90
22742;DHT22;11538;48.884;8.696;2022-09-21T00:31:13;9.40;99.90
22742;DHT22;11538;48.884;8.696;2022-09-21T00:33:43;9.40;99.90
22742;DHT22;11538;48.884;8.696;2022-09-21T00:36:13;9.40;99.90
22742;DHT22;11538;48.884;8.696;2022-09-21T00:38:47;9.40;99.90
22742;DHT22;11538;48.884;8.696;2022-09-21T00:41:16;9.30;99.90
22742;DHT22;11538;48.884;8.696;2022-09-21T00:43:47;9.30;99.90
22742;DHT22;11538;48.884;8.696;2022-09-21T00:46:31;9.30;99.90
22742;DHT22;11538;48.884;8.696;2022-09-21T00:48:58;9.30;99.90
22742;DHT22;11538;48.884;8.696;2022-09-21T00:51:25;9.30;99.90
22742;DHT22;11538;48.884;8.696;2022-09-21T00:53:53;9.30;99.90
22742;DHT22;11538;48.884;8.696;2022-09-21T00:56:26;9.20;99.90
22742;DHT22;11538;48.884;8.696;2022-09-21T00:58:54;9.20;99.90
22742;DHT22;11538;48.884;8.696;2022-09-21T01:01:21;9.20;99.90
22742;DHT22;11538;48.884;8.696;2022-09-21T01:03:50;9.20;99.90
22742;DHT22;11538;48.884;8.696;2022-09-21T01:06:19;9.20;99.90
22742;DHT22;11538;48.884;8.696;2022-09-21T01:08:47;9.10;99.90
22742;DHT22;11538;48.884;8.696;2022-09-21T01:15:01;9.10;99.90
22742;DHT22;11538;48.884;8.696;2022-09-21T01:25:53;8.90;99.90
22742;DHT22;11538;48.884;8.696;2022-09-21T01:31:36;8.90;99.90
22742;DHT22;11538;48.884;8.696;2022-09-21T01:34:08;8.90;99.90
22742;DHT22;11538;48.884;8.696;2022-09-21T01:36:41;8.90;99.90
22742;DHT22;11538;48.884;8.696;2022-09-21T01:39:12;8.90;99.90
22742;DHT22;11538;48.884;8.696;2022-09-21T01:41:42;8.90;99.90
22742;DHT22;11538;48.884;8.696;2022-09-21T01:44:12;8.80;99.90
22742;DHT22;11538;48.884;8.696;2022-09-21T01:46:45;8.80;99.90
22742;DHT22;11538;48.884;8.696;2022-09-21T01:49:16;8.70;99.90
22742;DHT22;11538;48.884;8.696;2022-09-21T01:51:55;8.70;99.90
22742;DHT22;11538;48.884;8.696;2022-09-21T01:54:29;8.60;99.90
22742;DHT22;11538;48.884;8.696;2022-09-21T01:57:18;8.50;99.90
22742;DHT22;11538;48.884;8.696;2022-09-21T01:59:50;8.30;99.90
22742;DHT22;11538;48.884;8.696;2022-09-21T02:02:25;8.30;99.90
22742;DHT22;11538;48.884;8.696;2022-09-21T02:05:00;8.30;99.90
22742;DHT22;11538;48.884;8.696;2022-09-21T02:07:28;8.20;99.90
22742;DHT22;11538;48.884;8.696;2022-09-21T02:09:57;8.20;99.90
22742;DHT22;11538;48.884;8.696;2022-09-21T02:12:27;8.20;99.90
22742;DHT22;11538;48.884;8.696;2022-09-21T02:14:55;8.20;99.90
22742;DHT22;11538;48.884;8.696;2022-09-21T02:18:06;8.20;99.90
22742;DHT22;11538;48.884;8.696;2022-09-21T02:20:27;8.20;99.90
22742;DHT22;11538;48.884;8.696;2022-09-21T02:26:04;8.30;99.90
22742;DHT22;11538;48.884;8.696;2022-09-21T02:28:43;8.30;99.90
22742;DHT22;11538;48.884;8.696;2022-09-21T02:34:18;8.30;99.90
22742;DHT22;11538;48.884;8.696;2022-09-21T02:36:54;8.30;99.90
22742;DHT22;11538;48.884;8.696;2022-09-21T02:42:55;8.20;99.90
22742;DHT22;11538;48.884;8.696;2022-09-21T02:45:29;8.20;99.90
22742;DHT22;11538;48.884;8.696;2022-09-21T02:51:10;8.10;99.90
22742;DHT22;11538;48.884;8.696;2022-09-21T02:53:42;8.20;99.90
22742;DHT22;11538;48.884;8.696;2022-09-21T02:56:15;8.20;99.90
22742;DHT22;11538;48.884;8.696;2022-09-21T02:58:45;8.10;99.90
22742;DHT22;11538;48.884;8.696;2022-09-21T03:01:15;8.10;99.90
22742;DHT22;11538;48.884;8.696;2022-09-21T03:03:44;8.10;99.90
22742;DHT22;11538;48.884;8.696;2022-09-21T03:06:11;8.10;99.90
22742;DHT22;11538;48.884;8.696;2022-09-21T03:08:38;8.10;99.90
22742;DHT22;11538;48.884;8.696;2022-09-21T03:11:05;8.10;99.90
22742;DHT22;11538;48.884;8.696;2022-09-21T03:13:32;8.10;99.90
22742;DHT22;11538;48.884;8.696;2022-09-21T03:16:00;8.10;99.90
22742;DHT22;11538;48.884;8.696;2022-09-21T03:18:29;8.10;99.90
22742;DHT22;11538;48.884;8.696;2022-09-21T03:20:57;8.10;99.90
22742;DHT22;11538;48.884;8.696;2022-09-21T03:23:24;8.10;99.90
22742;DHT22;11538;48.884;8.696;2022-09-21T03:25:51;8.10;99.90
22742;DHT22;11538;48.884;8.696;2022-09-21T03:28:20;8.10;99.90
22742;DHT22;11538;48.884;8.696;2022-09-21T03:30:47;8.00;99.90
22742;DHT22;11538;48.884;8.696;2022-09-21T03:33:16;8.10;99.90
22742;DHT22;11538;48.884;8.696;2022-09-21T03:35:44;8.00;99.90
22742;DHT22;11538;48.884;8.696;2022-09-21T03:38:13;8.00;99.90
22742;DHT22;11538;48.884;8.696;2022-09-21T03:40:45;8.00;99.90
22742;DHT22;11538;48.884;8.696;2022-09-21T03:43:14;8.00;99.90
22742;DHT22;11538;48.884;8.696;2022-09-21T03:45:42;8.00;99.90
22742;DHT22;11538;48.884;8.696;2022-09-21T03:48:09;7.90;99.90
22742;DHT22;11538;48.884;8.696;2022-09-21T03:50:37;7.90;99.90
22742;DHT22;11538;48.884;8.696;2022-09-21T03:53:04;7.90;99.90
22742;DHT22;11538;48.884;8.696;2022-09-21T03:55:31;7.90;99.90
22742;DHT22;11538;48.884;8.696;2022-09-21T03:57:58;7.90;99.90
22742;DHT22;11538;48.884;8.696;2022-09-21T04:00:26;7.90;99.90
22742;DHT22;11538;48.884;8.696;2022-09-21T04:02:53;7.80;99.90
22742;DHT22;11538;48.884;8.696;2022-09-21T04:05:20;7.80;99.90
22742;DHT22;11538;48.884;8.696;2022-09-21T04:07:47;7.80;99.90
22742;DHT22;11538;48.884;8.696;2022-09-21T04:10:15;7.70;99.90
22742;DHT22;11538;48.884;8.696;2022-09-21T04:12:44;7.60;99.90
22742;DHT22;11538;48.884;8.696;2022-09-21T04:15:16;7.70;99.90
22742;DHT22;11538;48.884;8.696;2022-09-21T04:17:49;7.60;99.90
22742;DHT22;11538;48.884;8.696;2022-09-21T04:20:16;7.60;99.90
22742;DHT22;11538;48.884;8.696;2022-09-21T04:22:44;7.60;99.90
22742;DHT22;11538;48.884;8.696;2022-09-21T04:25:12;7.60;99.90
22742;DHT22;11538;48.884;8.696;2022-09-21T04:27:40;7.60;99.90
22742;DHT22;11538;48.884;8.696;2022-09-21T04:30:09;7.60;99.90
22742;DHT22;11538;48.884;8.696;2022-09-21T04:32:37;7.50;99.90
22742;DHT22;11538;48.884;8.696;2022-09-21T04:35:04;7.60;99.90
22742;DHT22;11538;48.884;8.696;2022-09-21T04:37:31;7.50;99.90
22742;DHT22;11538;48.884;8.696;2022-09-21T04:39:58;7.50;99.90
22742;DHT22;11538;48.884;8.696;2022-09-21T04:42:25;7.60;99.90
22742;DHT22;11538;48.884;8.696;2022-09-21T04:44:52;7.60;99.90
22742;DHT22;11538;48.884;8.696;2022-09-21T04:47:19;7.60;99.90
22742;DHT22;11538;48.884;8.696;2022-09-21T04:49:49;7.60;99.90
22742;DHT22;11538;48.884;8.696;2022-09-21T04:52:17;7.60;99.90
22742;DHT22;11538;48.884;8.696;2022-09-21T04:54:45;7.60;99.90
22742;DHT22;11538;48.884;8.696;2022-09-21T04:57:12;7.50;99.90
22742;DHT22;11538;48.884;8.696;2022-09-21T04:59:40;7.50;99.90
22742;DHT22;11538;48.884;8.696;2022-09-21T05:02:07;7.50;99.90
22742;DHT22;11538;48.884;8.696;2022-09-21T05:04:34;7.50;99.90
22742;DHT22;11538;48.884;8.696;2022-09-21T05:07:01;7.50;99.90
22742;DHT22;11538;48.884;8.696;2022-09-21T05:09:28;7.40;99.90
22742;DHT22;11538;48.884;8.696;2022-09-21T05:12:13;7.40;99.90
22742;DHT22;11538;48.884;8.696;2022-09-21T05:14:40;7.40;99.90
22742;DHT22;11538;48.884;8.696;2022-09-21T05:17:10;7.40;99.90
22742;DHT22;11538;48.884;8.696;2022-09-21T05:19:37;7.40;99.90
22742;DHT22;11538;48.884;8.696;2022-09-21T05:22:04;7.40;99.90
22742;DHT22;11538;48.884;8.696;2022-09-21T05:24:31;7.40;99.90
22742;DHT22;11538;48.884;8.696;2022-09-21T05:26:58;7.40;99.90
22742;DHT22;11538;48.884;8.696;2022-09-21T05:29:25;7.30;99.90
22742;DHT22;11538;48.884;8.696;2022-09-21T05:35:06;7.30;99.90
22742;DHT22;11538;48.884;8.696;2022-09-21T05:40:21;7.30;99.90
22742;DHT22;11538;48.884;8.696;2022-09-21T05:42:48;7.20;99.90
22742;DHT22;11538;48.884;8.696;2022-09-21T05:45:16;7.30;99.90
22742;DHT22;11538;48.884;8.696;2022-09-21T05:50:52;7.20;99.90
22742;DHT22;11538;48.884;8.696;2022-09-21T06:02:30;7.30;99.90
22742;DHT22;11538;48.884;8.696;2022-09-21T06:05:15;7.30;99.90
22742;DHT22;11538;48.884;8.696;2022-09-21T06:07:43;7.30;99.90
22742;DHT22;11538;48.884;8.696;2022-09-21T06:10:10;7.40;99.90
22742;DHT22;11538;48.884;8.696;2022-09-21T06:12:38;7.40;99.90
22742;DHT22;11538;48.884;8.696;2022-09-21T06:15:06;7.40;99.90
22742;DHT22;11538;48.884;8.696;2022-09-21T06:17:36;7.40;99.90
22742;DHT22;11538;48.884;8.696;2022-09-21T06:20:02;7.40;99.90
22742;DHT22;11538;48.884;8.696;2022-09-21T06:22:32;7.40;99.90
22742;DHT22;11538;48.884;8.696;2022-09-21T06:24:59;7.50;99.90
22742;DHT22;11538;48.884;8.696;2022-09-21T06:27:29;7.50;99.90
22742;DHT22;11538;48.884;8.696;2022-09-21T06:31:28;7.50;99.90
22742;DHT22;11538;48.884;8.696;2022-09-21T06:33:55;7.60;99.90
22742;DHT22;11538;48.884;8.696;2022-09-21T06:36:22;7.70;99.90
22742;DHT22;11538;48.884;8.696;2022-09-21T06:38:49;7.70;99.90
22742;DHT22;11538;48.884;8.696;2022-09-21T06:41:16;7.80;99.90
22742;DHT22;11538;48.884;8.696;2022-09-21T06:43:47;7.80;99.90
22742;DHT22;11538;48.884;8.696;2022-09-21T06:46:14;7.90;99.90
22742;DHT22;11538;48.884;8.696;2022-09-21T06:48:40;7.90;99.90
22742;DHT22;11538;48.884;8.696;2022-09-21T06:51:08;7.90;99.90
22742;DHT22;11538;48.884;8.696;2022-09-21T06:53:35;8.00;99.90
22742;DHT22;11538;48.884;8.696;2022-09-21T06:56:02;8.00;99.90
22742;DHT22;11538;48.884;8.696;2022-09-21T06:58:31;8.10;99.90
22742;DHT22;11538;48.884;8.696;2022-09-21T07:01:03;8.20;99.90
22742;DHT22;11538;48.884;8.696;2022-09-21T07:03:34;8.30;99.90
22742;DHT22;11538;48.884;8.696;2022-09-21T07:06:02;8.30;99.90
22742;DHT22;11538;48.884;8.696;2022-09-21T07:08:29;8.40;99.90
22742;DHT22;11538;48.884;8.696;2022-09-21T07:11:16;8.40;99.90
22742;DHT22;11538;48.884;8.696;2022-09-21T07:13:43;8.50;99.90
22742;DHT22;11538;48.884;8.696;2022-09-21T07:16:11;8.70;99.90
22742;DHT22;11538;48.884;8.696;2022-09-21T07:18:38;8.70;99.90
22742;DHT22;11538;48.884;8.696;2022-09-21T07:21:10;8.80;99.90
22742;DHT22;11538;48.884;8.696;2022-09-21T07:23:37;8.90;99.90
22742;DHT22;11538;48.884;8.696;2022-09-21T07:26:08;8.90;99.90
22742;DHT22;11538;48.884;8.696;2022-09-21T07:28:37;9.00;99.90
22742;DHT22;11538;48.884;8.696;2022-09-21T07:31:05;9.10;99.90
22742;DHT22;11538;48.884;8.696;2022-09-21T07:33:34;9.20;99.90
22742;DHT22;11538;48.884;8.696;2022-09-21T07:36:02;9.20;99.90
22742;DHT22;11538;48.884;8.696;2022-09-21T07:38:39;9.30;99.90
22742;DHT22;11538;48.884;8.696;2022-09-21T07:41:12;9.40;99.90
22742;DHT22;11538;48.884;8.696;2022-09-21T07:43:39;9.50;99.90
22742;DHT22;11538;48.884;8.696;2022-09-21T07:46:08;9.70;99.90
22742;DHT22;11538;48.884;8.696;2022-09-21T07:48:36;9.80;99.90
22742;DHT22;11538;48.884;8.696;2022-09-21T07:51:04;10.00;99.90
22742;DHT22;11538;48.884;8.696;2022-09-21T07:53:33;10.10;99.90
22742;DHT22;11538;48.884;8.696;2022-09-21T07:56:05;10.30;99.90
22742;DHT22;11538;48.884;8.696;2022-09-21T07:58:34;10.50;99.90
22742;DHT22;11538;48.884;8.696;2022-09-21T08:01:21;10.80;99.90
22742;DHT22;11538;48.884;8.696;2022-09-21T08:03:53;11.00;99.90
22742;DHT22;11538;48.884;8.696;2022-09-21T08:06:22;11.20;99.90
22742;DHT22;11538;48.884;8.696;2022-09-21T08:08:51;11.50;99.90
22742;DHT22;11538;48.884;8.696;2022-09-21T08:11:23;11.70;99.90
22742;DHT22;11538;48.884;8.696;2022-09-21T08:13:57;12.00;99.90
22742;DHT22;11538;48.884;8.696;2022-09-21T08:16:26;12.30;99.90
22742;DHT22;11538;48.884;8.696;2022-09-21T08:18:55;12.60;99.90
22742;DHT22;11538;48.884;8.696;2022-09-21T08:21:21;12.90;99.90
22742;DHT22;11538;48.884;8.696;2022-09-21T08:23:48;13.10;99.90
22742;DHT22;11538;48.884;8.696;2022-09-21T08:26:16;13.40;99.90
22742;DHT22;11538;48.884;8.696;2022-09-21T08:28:45;13.60;99.90
22742;DHT22;11538;48.884;8.696;2022-09-21T08:31:18;13.90;99.90
22742;DHT22;11538;48.884;8.696;2022-09-21T08:33:47;14.10;99.90
22742;DHT22;11538;48.884;8.696;2022-09-21T08:36:15;14.40;99.90
22742;DHT22;11538;48.884;8.696;2022-09-21T08:38:42;14.70;99.90
22742;DHT22;11538;48.884;8.696;2022-09-21T08:43:52;15.30;99.90
22742;DHT22;11538;48.884;8.696;2022-09-21T08:46:30;15.60;99.90
22742;DHT22;11538;48.884;8.696;2022-09-21T08:49:01;15.90;99.90
22742;DHT22;11538;48.884;8.696;2022-09-21T08:51:36;16.10;99.90
22742;DHT22;11538;48.884;8.696;2022-09-21T08:56:55;16.60;99.90
22742;DHT22;11538;48.884;8.696;2022-09-21T08:59:32;16.80;99.90
22742;DHT22;11538;48.884;8.696;2022-09-21T09:02:16;16.90;99.90
22742;DHT22;11538;48.884;8.696;2022-09-21T09:10:50;17.50;99.90
22742;DHT22;11538;48.884;8.696;2022-09-21T09:19:18;18.10;99.90
22742;DHT22;11538;48.884;8.696;2022-09-21T09:21:54;18.30;99.90
22742;DHT22;11538;48.884;8.696;2022-09-21T09:27:05;18.40;99.90
22742;DHT22;11538;48.884;8.696;2022-09-21T09:29:50;18.60;99.90
22742;DHT22;11538;48.884;8.696;2022-09-21T09:32:44;18.70;99.90
22742;DHT22;11538;48.884;8.696;2022-09-21T09:37:49;18.90;99.90
22742;DHT22;11538;48.884;8.696;2022-09-21T09:40:19;18.80;99.90
22742;DHT22;11538;48.884;8.696;2022-09-21T09:43:00;18.80;99.90
22742;DHT22;11538;48.884;8.696;2022-09-21T09:50:41;19.00;99.90
22742;DHT22;11538;48.884;8.696;2022-09-21T09:55:43;19.10;99.90
22742;DHT22;11538;48.884;8.696;2022-09-21T10:00:44;19.20;99.90
22742;DHT22;11538;48.884;8.696;2022-09-21T10:03:16;19.30;99.90
22742;DHT22;11538;48.884;8.696;2022-09-21T10:05:45;19.30;99.90
22742;DHT22;11538;48.884;8.696;2022-09-21T10:08:38;19.20;99.90
22742;DHT22;11538;48.884;8.696;2022-09-21T10:11:15;19.20;99.90
22742;DHT22;11538;48.884;8.696;2022-09-21T10:13:44;19.10;99.90
22742;DHT22;11538;48.884;8.696;2022-09-21T10:16:13;19.10;99.90
22742;DHT22;11538;48.884;8.696;2022-09-21T10:18:47;19.00;99.90
22742;DHT22;11538;48.884;8.696;2022-09-21T10:21:36;19.00;99.90
22742;DHT22;11538;48.884;8.696;2022-09-21T10:24:19;19.10;99.90
22742;DHT22;11538;48.884;8.696;2022-09-21T10:27:12;19.40;99.90
22742;DHT22;11538;48.884;8.696;2022-09-21T10:29:42;19.60;99.90
22742;DHT22;11538;48.884;8.696;2022-09-21T10:34:41;20.20;99.90
22742;DHT22;11538;48.884;8.696;2022-09-21T10:37:43;20.40;99.90
22742;DHT22;11538;48.884;8.696;2022-09-21T10:40:21;20.70;99.90
22742;DHT22;11538;48.884;8.696;2022-09-21T10:42:57;20.90;99.90
22742;DHT22;11538;48.884;8.696;2022-09-21T10:45:32;21.20;99.90
22742;DHT22;11538;48.884;8.696;2022-09-21T10:48:09;21.40;99.90
22742;DHT22;11538;48.884;8.696;2022-09-21T10:50:42;21.60;99.90
22742;DHT22;11538;48.884;8.696;2022-09-21T10:53:24;21.80;99.90
22742;DHT22;11538;48.884;8.696;2022-09-21T10:56:07;22.00;99.90
22742;DHT22;11538;48.884;8.696;2022-09-21T11:01:43;22.30;99.90
22742;DHT22;11538;48.884;8.696;2022-09-21T11:04:14;22.50;99.90
22742;DHT22;11538;48.884;8.696;2022-09-21T11:06:44;22.60;99.90
22742;DHT22;11538;48.884;8.696;2022-09-21T11:09:19;22.80;99.90
22742;DHT22;11538;48.884;8.696;2022-09-21T11:17:38;23.40;99.90
22742;DHT22;11538;48.884;8.696;2022-09-21T11:22:58;23.80;99.90
22742;DHT22;11538;48.884;8.696;2022-09-21T11:28:45;23.40;99.90
22742;DHT22;11538;48.884;8.696;2022-09-21T11:42:26;21.80;99.90
22742;DHT22;11538;48.884;8.696;2022-09-21T11:45:19;22.10;99.90
22742;DHT22;11538;48.884;8.696;2022-09-21T11:53:41;24.10;99.90
22742;DHT22;11538;48.884;8.696;2022-09-21T11:56:16;24.60;99.90
22742;DHT22;11538;48.884;8.696;2022-09-21T12:22:13;25.60;99.90
22742;DHT22;11538;48.884;8.696;2022-09-21T12:24:46;25.50;99.90
22742;DHT22;11538;48.884;8.696;2022-09-21T12:27:25;25.50;99.90
22742;DHT22;11538;48.884;8.696;2022-09-21T12:29:57;25.60;99.90
22742;DHT22;11538;48.884;8.696;2022-09-21T12:35:11;25.10;99.90
22742;DHT22;11538;48.884;8.696;2022-09-21T12:37:45;24.60;99.90
22742;DHT22;11538;48.884;8.696;2022-09-21T12:40:20;24.00;99.90
22742;DHT22;11538;48.884;8.696;2022-09-21T12:42:59;24.00;99.90
22742;DHT22;11538;48.884;8.696;2022-09-21T12:45:46;24.30;99.90
22742;DHT22;11538;48.884;8.696;2022-09-21T12:51:35;25.40;99.90
22742;DHT22;11538;48.884;8.696;2022-09-21T12:56:51;26.60;99.90
22742;DHT22;11538;48.884;8.696;2022-09-21T12:59:36;26.70;99.90
22742;DHT22;11538;48.884;8.696;2022-09-21T13:02:16;26.50;99.90
22742;DHT22;11538;48.884;8.696;2022-09-21T13:04:57;26.60;99.90
22742;DHT22;11538;48.884;8.696;2022-09-21T13:10:19;27.10;99.90
22742;DHT22;11538;48.884;8.696;2022-09-21T13:12:51;27.40;99.90
22742;DHT22;11538;48.884;8.696;2022-09-21T13:15:25;26.90;99.90
22742;DHT22;11538;48.884;8.696;2022-09-21T13:17:57;26.20;99.90
22742;DHT22;11538;48.884;8.696;2022-09-21T13:20:33;25.40;99.90
22742;DHT22;11538;48.884;8.696;2022-09-21T13:23:02;24.60;99.90
22742;DHT22;11538;48.884;8.696;2022-09-21T13:25:30;23.80;99.90
22742;DHT22;11538;48.884;8.696;2022-09-21T13:38:55;25.40;99.90
22742;DHT22;11538;48.884;8.696;2022-09-21T13:41:29;26.10;99.90
22742;DHT22;11538;48.884;8.696;2022-09-21T13:44:20;26.70;99.90
22742;DHT22;11538;48.884;8.696;2022-09-21T13:47:03;26.70;99.90
22742;DHT22;11538;48.884;8.696;2022-09-21T13:49:32;26.30;99.90
22742;DHT22;11538;48.884;8.696;2022-09-21T13:57:31;24.20;99.90
22742;DHT22;11538;48.884;8.696;2022-09-21T14:02:51;22.80;99.90
22742;DHT22;11538;48.884;8.696;2022-09-21T14:08:00;23.10;99.90
22742;DHT22;11538;48.884;8.696;2022-09-21T14:10:32;23.40;99.90
22742;DHT22;11538;48.884;8.696;2022-09-21T14:13:04;23.90;99.90
22742;DHT22;11538;48.884;8.696;2022-09-21T14:15:48;24.30;99.90
22742;DHT22;11538;48.884;8.696;2022-09-21T14:24:27;24.90;99.90
22742;DHT22;11538;48.884;8.696;2022-09-21T14:26:45;25.20;99.90
22742;DHT22;11538;48.884;8.696;2022-09-21T14:32:19;25.40;99.90
22742;DHT22;11538;48.884;8.696;2022-09-21T14:34:49;25.20;99.90
22742;DHT22;11538;48.884;8.696;2022-09-21T14:37:24;24.70;99.90
22742;DHT22;11538;48.884;8.696;2022-09-21T14:39:56;24.10;99.90
22742;DHT22;11538;48.884;8.696;2022-09-21T14:42:27;23.50;99.90
22742;DHT22;11538;48.884;8.696;2022-09-21T14:44:55;23.00;99.90
22742;DHT22;11538;48.884;8.696;2022-09-21T14:55:44;21.60;99.90
22742;DHT22;11538;48.884;8.696;2022-09-21T14:58:30;21.40;99.90
22742;DHT22;11538;48.884;8.696;2022-09-21T15:16:16;19.90;99.90
22742;DHT22;11538;48.884;8.696;2022-09-21T15:18:59;19.70;99.90
22742;DHT22;11538;48.884;8.696;2022-09-21T15:21:45;19.50;99.90
22742;DHT22;11538;48.884;8.696;2022-09-21T15:24:21;19.30;99.90
22742;DHT22;11538;48.884;8.696;2022-09-21T15:26:52;19.20;99.90
22742;DHT22;11538;48.884;8.696;2022-09-21T15:29:28;19.00;99.90
22742;DHT22;11538;48.884;8.696;2022-09-21T15:31:57;19.00;99.90
22742;DHT22;11538;48.884;8.696;2022-09-21T15:34:25;18.90;99.90
22742;DHT22;11538;48.884;8.696;2022-09-21T15:36:53;18.90;99.90
22742;DHT22;11538;48.884;8.696;2022-09-21T15:39:32;18.90;99.90
22742;DHT22;11538;48.884;8.696;2022-09-21T15:44:33;18.90;99.90
22742;DHT22;11538;48.884;8.696;2022-09-21T15:47:03;18.90;99.90
22742;DHT22;11538;48.884;8.696;2022-09-21T15:49:34;18.80;99.90
22742;DHT22;11538;48.884;8.696;2022-09-21T15:54:51;18.70;99.90
22742;DHT22;11538;48.884;8.696;2022-09-21T15:57:39;18.50;99.90
22742;DHT22;11538;48.884;8.696;2022-09-21T16:02:48;18.30;99.90
22742;DHT22;11538;48.884;8.696;2022-09-21T16:05:21;18.20;99.90
22742;DHT22;11538;48.884;8.696;2022-09-21T16:08:03;18.10;99.90
22742;DHT22;11538;48.884;8.696;2022-09-21T16:10:34;18.10;99.90
22742;DHT22;11538;48.884;8.696;2022-09-21T16:13:17;18.00;99.90
22742;DHT22;11538;48.884;8.696;2022-09-21T16:16:11;18.00;99.90
22742;DHT22;11538;48.884;8.696;2022-09-21T16:18:45;17.90;99.90
22742;DHT22;11538;48.884;8.696;2022-09-21T16:21:24;17.90;99.90
22742;DHT22;11538;48.884;8.696;2022-09-21T16:23:55;17.80;99.90
22742;DHT22;11538;48.884;8.696;2022-09-21T16:26:25;17.80;99.90
22742;DHT22;11538;48.884;8.696;2022-09-21T16:29:20;17.80;99.90
22742;DHT22;11538;48.884;8.696;2022-09-21T16:34:49;17.70;99.90
22742;DHT22;11538;48.884;8.696;2022-09-21T16:39:56;17.50;99.90
22742;DHT22;11538;48.884;8.696;2022-09-21T16:42:25;17.50;99.90
22742;DHT22;11538;48.884;8.696;2022-09-21T16:44:59;17.50;99.90
22742;DHT22;11538;48.884;8.696;2022-09-21T16:47:28;17.40;99.90
22742;DHT22;11538;48.884;8.696;2022-09-21T16:49:58;17.40;99.90
22742;DHT22;11538;48.884;8.696;2022-09-21T16:52:29;17.40;99.90
22742;DHT22;11538;48.884;8.696;2022-09-21T16:54:56;17.30;99.90
22742;DHT22;11538;48.884;8.696;2022-09-21T16:57:24;17.30;99.90
22742;DHT22;11538;48.884;8.696;2022-09-21T16:59:51;17.20;99.90
22742;DHT22;11538;48.884;8.696;2022-09-21T17:02:19;17.20;99.90
22742;DHT22;11538;48.884;8.696;2022-09-21T17:04:46;17.10;99.90
22742;DHT22;11538;48.884;8.696;2022-09-21T17:07:13;17.10;99.90
22742;DHT22;11538;48.884;8.696;2022-09-21T17:09:43;17.00;99.90
22742;DHT22;11538;48.884;8.696;2022-09-21T17:12:13;17.00;99.90
22742;DHT22;11538;48.884;8.696;2022-09-21T17:14:43;16.90;99.90
22742;DHT22;11538;48.884;8.696;2022-09-21T17:19:46;16.80;99.90
22742;DHT22;11538;48.884;8.696;2022-09-21T17:22:16;16.70;99.90
22742;DHT22;11538;48.884;8.696;2022-09-21T17:24:47;16.60;99.90
22742;DHT22;11538;48.884;8.696;2022-09-21T17:27:22;16.50;99.90
22742;DHT22;11538;48.884;8.696;2022-09-21T17:29:51;16.30;99.90
22742;DHT22;11538;48.884;8.696;2022-09-21T17:32:21;16.20;99.90
22742;DHT22;11538;48.884;8.696;2022-09-21T17:34:53;16.10;99.90
22742;DHT22;11538;48.884;8.696;2022-09-21T17:37:24;16.00;99.90
22742;DHT22;11538;48.884;8.696;2022-09-21T17:39:51;15.90;99.90
22742;DHT22;11538;48.884;8.696;2022-09-21T17:42:20;15.80;99.90
22742;DHT22;11538;48.884;8.696;2022-09-21T17:44:59;15.70;99.90
22742;DHT22;11538;48.884;8.696;2022-09-21T17:47:32;15.60;99.90
22742;DHT22;11538;48.884;8.696;2022-09-21T17:50:11;15.50;99.90
22742;DHT22;11538;48.884;8.696;2022-09-21T17:52:40;15.40;99.90
22742;DHT22;11538;48.884;8.696;2022-09-21T17:55:34;15.30;99.90
22742;DHT22;11538;48.884;8.696;2022-09-21T18:03:20;14.80;99.90
22742;DHT22;11538;48.884;8.696;2022-09-21T18:05:50;14.70;99.90
22742;DHT22;11538;48.884;8.696;2022-09-21T18:08:28;14.50;99.90
22742;DHT22;11538;48.884;8.696;2022-09-21T18:11:15;14.50;99.90
22742;DHT22;11538;48.884;8.696;2022-09-21T18:25:13;13.90;99.90
22742;DHT22;11538;48.884;8.696;2022-09-21T18:27:51;13.80;99.90
22742;DHT22;11538;48.884;8.696;2022-09-21T18:30:21;13.80;99.90
22742;DHT22;11538;48.884;8.696;2022-09-21T18:33:02;13.70;99.90
22742;DHT22;11538;48.884;8.696;2022-09-21T18:35:39;13.60;99.90
22742;DHT22;11538;48.884;8.696;2022-09-21T18:41:09;13.40;99.90
22742;DHT22;11538;48.884;8.696;2022-09-21T18:50:03;13.10;99.90
22742;DHT22;11538;48.884;8.696;2022-09-21T18:52:59;12.90;99.90
22742;DHT22;11538;48.884;8.696;2022-09-21T18:55:34;12.80;99.90
22742;DHT22;11538;48.884;8.696;2022-09-21T18:58:03;12.70;99.90
22742;DHT22;11538;48.884;8.696;2022-09-21T19:00:31;12.60;99.90
22742;DHT22;11538;48.884;8.696;2022-09-21T19:03:04;12.50;99.90
22742;DHT22;11538;48.884;8.696;2022-09-21T19:05:47;12.50;99.90
22742;DHT22;11538;48.884;8.696;2022-09-21T19:08:18;12.50;99.90
22742;DHT22;11538;48.884;8.696;2022-09-21T19:10:57;12.40;99.90
22742;DHT22;11538;48.884;8.696;2022-09-21T19:13:40;12.50;99.90
22742;DHT22;11538;48.884;8.696;2022-09-21T19:21:41;12.40;99.90
22742;DHT22;11538;48.884;8.696;2022-09-21T19:30:12;12.20;99.90
22742;DHT22;11538;48.884;8.696;2022-09-21T19:32:49;12.10;99.90
22742;DHT22;11538;48.884;8.696;2022-09-21T19:37:52;12.00;99.90
22742;DHT22;11538;48.884;8.696;2022-09-21T19:40:21;12.00;99.90
22742;DHT22;11538;48.884;8.696;2022-09-21T19:48:34;11.80;99.90
22742;DHT22;11538;48.884;8.696;2022-09-21T19:51:18;11.70;99.90
22742;DHT22;11538;48.884;8.696;2022-09-21T19:53:56;11.70;99.90
22742;DHT22;11538;48.884;8.696;2022-09-21T19:56:46;11.70;99.90
22742;DHT22;11538;48.884;8.696;2022-09-21T19:59:33;11.70;99.90
22742;DHT22;11538;48.884;8.696;2022-09-21T20:10:24;11.70;99.90
22742;DHT22;11538;48.884;8.696;2022-09-21T20:19:03;11.40;99.90
22742;DHT22;11538;48.884;8.696;2022-09-21T20:21:40;11.30;99.90
22742;DHT22;11538;48.884;8.696;2022-09-21T20:24:20;11.20;99.90
22742;DHT22;11538;48.884;8.696;2022-09-21T20:26:51;11.20;99.90
22742;DHT22;11538;48.884;8.696;2022-09-21T20:29:18;11.20;99.90
22742;DHT22;11538;48.884;8.696;2022-09-21T20:31:46;11.20;99.90
22742;DHT22;11538;48.884;8.696;2022-09-21T20:34:15;11.20;99.90
22742;DHT22;11538;48.884;8.696;2022-09-21T20:36:41;11.10;99.90
22742;DHT22;11538;48.884;8.696;2022-09-21T20:39:08;11.10;99.90
22742;DHT22;11538;48.884;8.696;2022-09-21T20:41:35;11.00;99.90
22742;DHT22;11538;48.884;8.696;2022-09-21T20:44:03;11.00;99.90
22742;DHT22;11538;48.884;8.696;2022-09-21T20:46:30;10.90;99.90
22742;DHT22;11538;48.884;8.696;2022-09-21T20:48:57;10.80;99.90